Time;durP1;ratioP1;P1;durP2;ratioP2;P2;SDS_P1;SDS_P2;PMS_P1;PMS_P2;Temp;Humidity;BMP_temperature;BMP_pressure;BME280_temperature;BME280_humidity;BME280_pressure;Samples;Min_cycle;Max_cycle;Signal;HPM_P1;HPM_P2
2024/01/02 00:00:05;;;;;;;15.30;5.90;;;5.70;99.90;;;;;;5080889;28;20047;-74
2024/01/02 00:02:31;;;;;;;17.15;6.10;;;5.80;99.90;;;;;;5081503;28;20162;-74
2024/01/02 00:05:01;;;;;;;14.07;4.95;;;5.80;99.90;;;;;;5063927;28;20055;-74
2024/01/02 00:07:27;;;;;;;;;;;5.80;99.90;;;;;;5082070;28;20047;-74
2024/01/02 00:09:53;;;;;;;12.80;4.85;;;5.80;99.90;;;;;;5078552;28;20297;-74
2024/01/02 00:12:18;;;;;;;11.20;4.85;;;5.90;99.90;;;;;;5068963;28;20624;-74
2024/01/02 00:14:47;;;;;;;16.67;5.03;;;5.90;99.90;;;;;;5077787;28;20040;-74
2024/01/02 00:17:14;;;;;;;18.35;5.00;;;5.90;99.90;;;;;;5082740;28;20397;-74
2024/01/02 00:19:39;;;;;;;10.35;3.80;;;6.00;99.90;;;;;;5077016;28;20075;-74
2024/01/02 00:22:05;;;;;;;13.10;3.83;;;6.00;99.90;;;;;;5060920;28;20156;-75
2024/01/02 00:24:31;;;;;;;12.35;3.88;;;6.00;99.90;;;;;;5068745;28;20036;-75
2024/01/02 00:26:57;;;;;;;11.10;3.80;;;6.00;99.90;;;;;;5083780;28;20042;-74
2024/01/02 00:29:23;;;;;;;9.25;3.03;;;6.00;99.90;;;;;;5065524;28;20113;-75
2024/01/02 00:31:48;;;;;;;10.57;3.53;;;6.00;99.90;;;;;;5069775;28;20071;-75
2024/01/02 00:34:14;;;;;;;10.60;3.45;;;6.10;99.90;;;;;;5062098;28;20457;-74
2024/01/02 00:36:41;;;;;;;13.38;3.80;;;6.10;99.90;;;;;;5074493;28;20061;-74
2024/01/02 00:39:06;;;;;;;13.20;3.67;;;6.10;99.90;;;;;;5066006;28;20481;-74
2024/01/02 00:41:33;;;;;;;9.57;3.60;;;6.10;99.90;;;;;;5084116;27;20047;-74
2024/01/02 00:43:59;;;;;;;9.90;3.53;;;6.10;99.90;;;;;;5089878;28;20664;-74
2024/01/02 00:46:24;;;;;;;11.00;4.03;;;6.10;99.90;;;;;;5070100;28;20755;-74
2024/01/02 00:48:50;;;;;;;11.77;4.05;;;6.10;99.90;;;;;;5080216;28;20040;-74
2024/01/02 00:51:16;;;;;;;13.10;3.80;;;6.10;99.90;;;;;;5086958;28;20490;-73
2024/01/02 00:53:42;;;;;;;14.50;4.47;;;6.10;99.90;;;;;;5086007;28;20047;-74
2024/01/02 00:56:08;;;;;;;15.05;4.28;;;6.10;99.90;;;;;;5084489;28;20434;-75
2024/01/02 00:58:33;;;;;;;10.82;3.80;;;6.10;99.90;;;;;;5079754;28;20043;-74
2024/01/02 01:00:59;;;;;;;13.98;3.97;;;6.10;99.90;;;;;;5068361;28;20040;-75
2024/01/02 01:03:31;;;;;;;10.95;3.47;;;6.10;99.90;;;;;;5092408;27;20099;-76
2024/01/02 01:05:57;;;;;;;16.23;4.55;;;6.10;99.90;;;;;;5071494;28;20031;-74
2024/01/02 01:08:23;;;;;;;14.38;4.43;;;6.10;99.90;;;;;;5082892;28;20066;-73
2024/01/02 01:10:49;;;;;;;12.85;3.70;;;6.10;99.90;;;;;;5083783;28;20136;-74
2024/01/02 01:13:15;;;;;;;16.90;4.15;;;6.10;99.90;;;;;;5088059;28;20084;-74
2024/01/02 01:15:41;;;;;;;15.77;4.38;;;6.10;99.90;;;;;;5081152;28;20132;-74
2024/01/02 01:18:06;;;;;;;16.92;4.32;;;6.10;99.90;;;;;;5081431;27;20047;-74
2024/01/02 01:20:32;;;;;;;16.00;3.75;;;6.10;99.90;;;;;;5090849;28;20429;-74
2024/01/02 01:22:58;;;;;;;16.55;4.63;;;6.10;99.90;;;;;;5089305;28;20036;-73
2024/01/02 01:25:24;;;;;;;14.35;4.00;;;6.20;99.90;;;;;;5072379;28;20054;-74
2024/01/02 01:27:49;;;;;;;21.35;4.75;;;6.20;99.90;;;;;;5083138;27;20070;-74
2024/01/02 01:30:15;;;;;;;13.50;4.45;;;6.20;99.90;;;;;;5084321;28;20044;-74
2024/01/02 01:32:41;;;;;;;19.80;5.45;;;6.20;99.90;;;;;;5084085;28;20447;-74
2024/01/02 01:35:07;;;;;;;17.20;5.45;;;6.30;99.90;;;;;;5084517;28;20050;-74
2024/01/02 01:37:33;;;;;;;16.42;4.68;;;6.20;99.90;;;;;;5080437;27;20043;-74
2024/01/02 01:40:00;;;;;;;14.52;4.70;;;6.30;99.90;;;;;;5065474;28;20043;-73
2024/01/02 01:42:31;;;;;;;13.90;4.43;;;6.30;99.90;;;;;;5069707;27;20046;-74
2024/01/02 01:44:57;;;;;;;16.73;5.70;;;6.30;99.90;;;;;;5080995;28;20040;-74
2024/01/02 01:47:23;;;;;;;17.08;5.38;;;6.30;99.90;;;;;;5067704;27;20036;-75
2024/01/02 01:49:49;;;;;;;15.75;5.18;;;6.30;99.90;;;;;;5071585;27;20051;-74
2024/01/02 01:52:15;;;;;;;14.15;5.85;;;6.30;99.90;;;;;;5085935;28;20793;-74
2024/01/02 01:54:41;;;;;;;17.83;5.90;;;6.30;99.90;;;;;;5064088;28;20056;-73
2024/01/02 01:57:07;;;;;;;16.70;5.55;;;6.40;99.90;;;;;;5089134;27;20110;-74
2024/01/02 01:59:33;;;;;;;16.58;5.93;;;6.40;99.90;;;;;;5084810;28;20055;-73
2024/01/02 02:01:59;;;;;;;18.42;6.85;;;6.40;99.90;;;;;;5072711;28;21205;-74
2024/01/02 02:04:31;;;;;;;19.85;6.80;;;6.40;99.90;;;;;;5082982;28;20291;-74
2024/01/02 02:06:57;;;;;;;18.90;7.38;;;6.40;99.90;;;;;;5082080;28;20497;-73
2024/01/02 02:09:23;;;;;;;18.38;8.45;;;6.40;99.90;;;;;;5085113;28;20051;-74
2024/01/02 02:11:48;;;;;;;18.10;8.43;;;6.50;99.90;;;;;;5085597;28;20616;-74
2024/01/02 02:14:14;;;;;;;22.55;9.52;;;6.50;99.90;;;;;;5075667;28;21183;-74
2024/01/02 02:16:43;;;;;;;16.38;8.65;;;6.50;99.90;;;;;;5082130;27;20052;-74
2024/01/02 02:19:09;;;;;;;21.15;9.55;;;6.50;99.90;;;;;;5085687;27;20039;-74
2024/01/02 02:21:36;;;;;;;18.58;9.27;;;6.50;99.90;;;;;;5077228;28;20062;-74
2024/01/02 02:24:02;;;;;;;20.25;9.82;;;6.50;99.90;;;;;;5079953;27;20062;-74
2024/01/02 02:26:28;;;;;;;18.10;9.63;;;6.50;99.90;;;;;;5084511;28;20052;-75
2024/01/02 02:28:54;;;;;;;16.50;9.52;;;6.50;99.90;;;;;;5088453;28;20036;-75
2024/01/02 02:31:20;;;;;;;16.48;10.00;;;6.60;99.90;;;;;;5063785;28;20048;-75
2024/01/02 02:33:46;;;;;;;22.38;11.35;;;6.60;99.90;;;;;;5055990;28;20044;-75
2024/01/02 02:36:12;;;;;;;20.10;10.30;;;6.60;99.90;;;;;;5084139;28;20040;-75
2024/01/02 02:38:37;;;;;;;19.05;10.38;;;6.60;99.90;;;;;;5088839;28;20140;-75
2024/01/02 02:41:03;;;;;;;24.88;12.40;;;6.70;99.90;;;;;;5068902;28;20089;-75
2024/01/02 02:43:29;;;;;;;16.98;9.95;;;6.60;99.90;;;;;;5070140;27;20119;-75
2024/01/02 02:45:55;;;;;;;19.02;10.77;;;6.50;99.90;;;;;;5088219;28;20131;-75
2024/01/02 02:48:21;;;;;;;21.80;10.98;;;6.50;99.90;;;;;;5084740;27;20180;-75
2024/01/02 02:50:47;;;;;;;24.23;10.95;;;6.60;99.90;;;;;;5067051;28;20122;-75
2024/01/02 02:53:13;;;;;;;21.60;11.68;;;6.60;99.90;;;;;;5066662;28;20043;-75
2024/01/02 02:55:39;;;;;;;18.75;10.93;;;6.60;99.90;;;;;;5069761;28;20530;-75
2024/01/02 02:58:04;;;;;;;17.75;10.05;;;6.60;99.90;;;;;;5078897;28;20040;-75
2024/01/02 03:00:31;;;;;;;15.93;9.85;;;6.50;99.90;;;;;;5061633;28;20032;-76
2024/01/02 03:02:57;;;;;;;15.60;9.88;;;6.60;99.90;;;;;;5061949;28;20043;-76
2024/01/02 03:05:22;;;;;;;20.38;10.13;;;6.50;99.90;;;;;;5076750;28;20426;-76
2024/01/02 03:07:48;;;;;;;15.60;8.85;;;6.60;99.90;;;;;;5053739;28;20048;-75
2024/01/02 03:10:17;;;;;;;17.63;9.80;;;6.60;99.90;;;;;;5069149;28;20047;-76
2024/01/02 03:12:45;;;;;;;15.53;9.13;;;6.60;99.90;;;;;;5070425;28;20499;-75
2024/01/02 03:15:10;;;;;;;19.70;8.35;;;6.60;99.90;;;;;;5068254;28;20032;-76
2024/01/02 03:17:36;;;;;;;17.10;8.10;;;6.50;99.90;;;;;;5067429;28;20054;-75
2024/01/02 03:20:02;;;;;;;14.32;7.93;;;6.50;99.90;;;;;;5076813;28;20040;-75
2024/01/02 03:22:28;;;;;;;13.65;7.35;;;6.60;99.90;;;;;;5059516;28;20507;-75
2024/01/02 03:24:54;;;;;;;13.65;7.95;;;6.60;99.90;;;;;;5078206;28;20045;-75
2024/01/02 03:27:20;;;;;;;11.57;7.32;;;6.60;99.90;;;;;;5067923;28;20176;-76
2024/01/02 03:29:48;;;;;;;10.35;6.70;;;6.60;99.90;;;;;;5071340;28;20378;-75
2024/01/02 03:32:14;;;;;;;13.95;8.07;;;6.60;99.90;;;;;;5083787;28;20444;-76
2024/01/02 03:34:40;;;;;;;13.23;7.43;;;6.60;99.90;;;;;;5068206;28;20043;-75
2024/01/02 03:37:06;;;;;;;17.90;8.98;;;6.70;99.90;;;;;;5081452;28;20130;-74
2024/01/02 03:39:31;;;;;;;15.68;8.50;;;6.70;99.90;;;;;;5066271;27;20048;-75
2024/01/02 03:41:57;;;;;;;17.15;9.25;;;6.70;99.90;;;;;;5093513;28;20544;-77
2024/01/02 03:44:23;;;;;;;17.88;9.52;;;6.70;99.90;;;;;;5061830;28;20036;-76
2024/01/02 03:46:49;;;;;;;17.27;9.70;;;6.60;99.90;;;;;;5082337;28;20120;-77
2024/01/02 03:49:14;;;;;;;16.52;9.05;;;6.70;99.90;;;;;;5080624;28;20036;-76
2024/01/02 03:51:40;;;;;;;14.35;9.60;;;6.60;99.90;;;;;;5078905;28;20040;-77
2024/01/02 03:54:06;;;;;;;14.30;9.43;;;6.60;99.90;;;;;;5088813;28;20034;-77
2024/01/02 03:56:32;;;;;;;16.35;9.68;;;6.60;99.90;;;;;;5068147;28;20130;-77
2024/01/02 03:58:58;;;;;;;18.02;9.32;;;6.60;99.90;;;;;;5075616;28;20040;-77
2024/01/02 04:01:24;;;;;;;12.27;8.75;;;6.60;99.90;;;;;;5071217;28;20100;-76
2024/01/02 04:03:50;;;;;;;16.27;9.77;;;6.60;99.90;;;;;;5084644;28;20039;-76
2024/01/02 04:06:16;;;;;;;18.75;9.60;;;6.60;99.90;;;;;;5088445;28;20042;-75
2024/01/02 04:08:41;;;;;;;13.82;8.00;;;6.60;99.90;;;;;;5068287;28;20036;-75
2024/01/02 04:11:07;;;;;;;14.95;9.00;;;6.60;99.90;;;;;;5083712;28;20043;-74
2024/01/02 04:13:33;;;;;;;12.13;8.30;;;6.60;99.90;;;;;;5078067;28;20063;-75
2024/01/02 04:15:59;;;;;;;13.10;8.43;;;6.60;99.90;;;;;;5085614;28;20556;-76
2024/01/02 04:18:24;;;;;;;13.50;7.88;;;6.60;99.90;;;;;;5085359;28;20394;-77
2024/01/02 04:20:50;;;;;;;14.82;8.18;;;6.60;99.90;;;;;;5070687;28;20050;-76
2024/01/02 04:23:16;;;;;;;13.27;8.13;;;6.70;99.90;;;;;;5065337;28;20039;-77
2024/01/02 04:25:42;;;;;;;14.20;7.20;;;6.60;99.90;;;;;;5072588;27;20043;-77
2024/01/02 04:28:08;;;;;;;12.27;6.90;;;6.60;99.90;;;;;;5083550;28;20080;-78
2024/01/02 04:30:34;;;;;;;13.15;6.85;;;6.60;99.90;;;;;;5088916;28;20054;-78
2024/01/02 04:33:00;;;;;;;12.52;6.57;;;6.60;99.90;;;;;;5068279;28;20044;-78
2024/01/02 04:35:29;;;;;;;11.15;6.30;;;6.60;99.90;;;;;;5071021;28;20058;-79
2024/01/02 04:37:58;;;;;;;9.43;5.28;;;6.70;99.90;;;;;;5095550;28;20035;-78
2024/01/02 04:40:23;;;;;;;8.90;5.93;;;6.60;99.90;;;;;;5084387;28;20034;-79
2024/01/02 04:42:49;;;;;;;11.13;5.32;;;6.70;99.90;;;;;;5075550;27;20047;-79
2024/01/02 04:45:15;;;;;;;9.90;5.50;;;6.60;99.90;;;;;;5091583;28;20486;-79
2024/01/02 04:47:41;;;;;;;7.78;4.93;;;6.70;99.90;;;;;;5077163;27;20043;-80
2024/01/02 04:50:07;;;;;;;8.25;4.70;;;6.60;99.90;;;;;;5085446;27;20036;-78
2024/01/02 04:52:33;;;;;;;9.70;5.07;;;6.70;99.90;;;;;;5083248;28;20048;-79
2024/01/02 04:54:59;;;;;;;8.60;4.35;;;6.70;99.90;;;;;;5095636;27;20077;-79
2024/01/02 04:57:26;;;;;;;8.23;4.70;;;6.60;99.90;;;;;;5068864;28;20044;-79
2024/01/02 04:59:52;;;;;;;10.25;4.43;;;6.70;99.90;;;;;;5093643;28;20036;-79
2024/01/02 05:02:23;;;;;;;8.75;4.70;;;6.70;99.90;;;;;;5074802;27;20471;-78
2024/01/02 05:04:49;;;;;;;7.95;4.18;;;6.70;99.90;;;;;;5078638;28;20113;-79
2024/01/02 05:07:15;;;;;;;8.48;4.00;;;6.70;99.90;;;;;;5070600;28;20239;-79
2024/01/02 05:09:41;;;;;;;7.53;4.00;;;6.70;99.90;;;;;;5072051;28;20040;-79
2024/01/02 05:12:07;;;;;;;8.35;4.47;;;6.70;99.90;;;;;;5070220;28;20043;-79
2024/01/02 05:14:32;;;;;;;6.82;4.25;;;6.70;99.90;;;;;;5065873;28;20066;-79
2024/01/02 05:16:58;;;;;;;7.93;4.28;;;6.70;99.90;;;;;;5067548;28;20051;-78
2024/01/02 05:19:24;;;;;;;8.40;4.10;;;6.70;99.90;;;;;;5055239;28;20432;-79
2024/01/02 05:21:51;;;;;;;7.20;3.90;;;6.60;99.90;;;;;;5084366;28;20111;-79
2024/01/02 05:24:17;;;;;;;6.32;3.80;;;6.70;99.90;;;;;;5079087;28;20036;-79
2024/01/02 05:26:43;;;;;;;6.57;3.75;;;6.70;99.90;;;;;;5082657;28;20054;-78
2024/01/02 05:29:09;;;;;;;8.10;3.97;;;6.70;99.90;;;;;;5075520;28;20040;-79
2024/01/02 05:31:35;;;;;;;5.90;4.07;;;6.80;99.90;;;;;;5073508;28;20044;-80
2024/01/02 05:34:00;;;;;;;5.38;4.00;;;6.70;99.90;;;;;;5080705;28;20051;-78
2024/01/02 05:36:26;;;;;;;6.07;4.35;;;6.70;99.90;;;;;;5076147;28;20054;-79
2024/01/02 05:38:52;;;;;;;6.97;4.65;;;6.70;99.90;;;;;;5075687;28;20853;-79
2024/01/02 05:41:18;;;;;;;7.70;4.90;;;6.60;99.90;;;;;;5058056;28;20036;-79
2024/01/02 05:43:43;;;;;;;8.23;5.25;;;6.60;99.90;;;;;;5079888;28;20392;-79
2024/01/02 05:46:09;;;;;;;7.00;5.25;;;6.70;99.90;;;;;;5090112;28;20039;-79
2024/01/02 05:48:35;;;;;;;7.50;5.20;;;6.70;99.90;;;;;;5077171;28;20130;-78
2024/01/02 05:51:03;;;;;;;8.32;5.03;;;6.70;99.90;;;;;;5058018;28;20036;-78
2024/01/02 05:53:29;;;;;;;6.82;4.82;;;6.70;99.90;;;;;;5072435;28;20075;-78
2024/01/02 05:55:55;;;;;;;7.72;5.30;;;6.70;99.90;;;;;;5052594;28;20118;-78
2024/01/02 05:58:21;;;;;;;10.10;4.82;;;6.70;99.90;;;;;;5068389;28;20110;-78
2024/01/02 06:00:47;;;;;;;5.45;4.57;;;6.70;99.90;;;;;;5064082;28;20040;-79
2024/01/02 06:03:12;;;;;;;5.20;4.35;;;6.70;99.90;;;;;;5082669;27;20091;-79
2024/01/02 06:05:38;;;;;;;5.50;4.57;;;6.70;99.90;;;;;;5074822;28;20432;-79
2024/01/02 06:08:04;;;;;;;5.68;4.22;;;6.70;99.90;;;;;;5086689;27;20043;-79
2024/01/02 06:10:29;;;;;;;6.15;4.45;;;6.70;99.90;;;;;;5066778;28;20130;-78
2024/01/02 06:12:55;;;;;;;4.70;4.10;;;6.70;99.90;;;;;;5070441;28;20035;-78
2024/01/02 06:15:21;;;;;;;6.40;3.95;;;6.70;99.90;;;;;;5083819;28;20061;-78
2024/01/02 06:17:47;;;;;;;5.82;4.53;;;6.70;99.90;;;;;;5080970;27;20085;-78
2024/01/02 06:20:13;;;;;;;5.00;4.05;;;6.70;99.90;;;;;;5083298;28;20039;-78
2024/01/02 06:22:38;;;;;;;5.47;4.20;;;6.70;99.90;;;;;;5075918;28;20515;-78
2024/01/02 06:25:08;;;;;;;4.35;3.60;;;6.70;99.90;;;;;;5065257;28;20055;-78
2024/01/02 06:27:35;;;;;;;4.40;3.90;;;6.80;99.90;;;;;;5064505;28;20050;-78
2024/01/02 06:30:03;;;;;;;4.78;3.53;;;6.70;99.90;;;;;;5087478;27;20039;-77
2024/01/02 06:32:28;;;;;;;5.22;3.72;;;6.80;99.90;;;;;;5078968;28;20075;-77
2024/01/02 06:34:54;;;;;;;4.65;4.22;;;6.80;99.90;;;;;;5080995;28;20063;-78
2024/01/02 06:37:20;;;;;;;4.43;3.80;;;6.80;99.90;;;;;;5068073;28;20604;-77
2024/01/02 06:39:46;;;;;;;5.03;3.72;;;6.80;99.90;;;;;;5085367;27;20051;-77
2024/01/02 06:42:11;;;;;;;4.72;3.78;;;6.80;99.90;;;;;;5071951;28;20220;-77
2024/01/02 06:44:37;;;;;;;4.43;3.33;;;6.90;99.90;;;;;;5085163;27;20151;-77
2024/01/02 06:47:03;;;;;;;4.10;3.58;;;6.80;99.90;;;;;;5069941;28;20035;-76
2024/01/02 06:49:29;;;;;;;6.10;3.63;;;6.90;99.90;;;;;;5085535;28;20131;-77
2024/01/02 06:51:55;;;;;;;4.50;3.72;;;6.90;99.90;;;;;;5066276;28;20486;-77
2024/01/02 06:54:21;;;;;;;5.00;3.80;;;6.90;99.90;;;;;;5065644;27;20075;-76
2024/01/02 06:56:46;;;;;;;3.83;3.22;;;7.00;99.90;;;;;;5093812;27;20075;-77
2024/01/02 06:59:12;;;;;;;4.85;3.85;;;7.00;99.90;;;;;;5087852;28;20097;-77
2024/01/02 07:01:38;;;;;;;4.25;3.85;;;7.00;99.90;;;;;;5086174;28;20082;-77
2024/01/02 07:04:04;;;;;;;4.20;3.45;;;7.10;99.90;;;;;;5083368;27;20040;-77
2024/01/02 07:06:30;;;;;;;4.72;4.05;;;7.10;99.90;;;;;;5077224;28;20565;-76
2024/01/02 07:08:56;;;;;;;6.90;5.03;;;7.10;99.90;;;;;;5087288;28;20075;-77
2024/01/02 07:11:22;;;;;;;5.45;4.45;;;7.20;99.90;;;;;;5067179;28;20063;-77
2024/01/02 07:13:47;;;;;;;5.28;4.55;;;7.20;99.90;;;;;;5090893;28;20193;-77
2024/01/02 07:16:13;;;;;;;6.25;5.50;;;7.20;99.90;;;;;;5074176;27;20038;-77
2024/01/02 07:18:39;;;;;;;6.07;5.05;;;7.20;99.90;;;;;;5079210;28;20498;-77
2024/01/02 07:21:05;;;;;;;8.90;6.38;;;7.20;99.90;;;;;;5086066;27;20429;-77
2024/01/02 07:23:31;;;;;;;6.00;5.40;;;7.30;99.90;;;;;;5062204;28;20123;-77
2024/01/02 07:25:57;;;;;;;10.20;6.70;;;7.30;99.90;;;;;;5078063;28;20185;-77
2024/01/02 07:28:23;;;;;;;6.18;5.47;;;7.30;99.90;;;;;;5081031;28;20569;-76
2024/01/02 07:30:50;;;;;;;6.28;5.60;;;7.30;99.90;;;;;;5081394;28;20038;-76
2024/01/02 07:33:16;;;;;;;6.38;5.72;;;7.40;99.90;;;;;;5064031;28;20101;-76
2024/01/02 07:35:42;;;;;;;7.50;6.60;;;7.40;99.90;;;;;;5086991;27;20035;-76
2024/01/02 07:38:08;;;;;;;7.05;6.20;;;7.40;99.90;;;;;;5092150;27;20038;-76
2024/01/02 07:40:34;;;;;;;8.50;7.07;;;7.50;99.90;;;;;;5068894;28;20071;-76
2024/01/02 07:43:00;;;;;;;8.18;6.95;;;7.50;99.90;;;;;;5066338;28;20520;-76
2024/01/02 07:45:28;;;;;;;8.85;7.22;;;7.60;99.90;;;;;;5082911;28;20059;-76
2024/01/02 07:47:54;;;;;;;7.03;6.00;;;7.70;99.90;;;;;;5096512;27;20039;-76
2024/01/02 07:50:20;;;;;;;6.78;5.68;;;7.70;99.90;;;;;;5082081;28;20043;-76
2024/01/02 07:52:47;;;;;;;7.03;5.63;;;7.80;99.90;;;;;;5064776;28;20073;-76
2024/01/02 07:55:13;;;;;;;9.55;6.32;;;7.80;99.90;;;;;;5078532;28;20374;-76
2024/01/02 07:57:38;;;;;;;9.73;6.43;;;7.90;99.90;;;;;;5086156;28;20046;-76
2024/01/02 08:00:05;;;;;;;10.93;7.03;;;8.00;99.90;;;;;;5063080;28;20394;-76
2024/01/02 08:02:31;;;;;;;15.02;7.45;;;8.00;99.90;;;;;;5082225;28;20039;-75
2024/01/02 08:04:57;;;;;;;13.65;6.43;;;8.10;99.90;;;;;;5075914;28;20388;-76
2024/01/02 08:07:23;;;;;;;13.40;7.90;;;8.10;99.90;;;;;;5067306;28;20032;-78
2024/01/02 08:09:48;;;;;;;14.18;7.22;;;8.20;99.90;;;;;;5084299;28;20045;-75
2024/01/02 08:12:14;;;;;;;13.82;8.05;;;8.30;99.90;;;;;;5080437;28;20035;-76
2024/01/02 08:14:40;;;;;;;15.38;8.75;;;8.40;99.90;;;;;;5070853;28;20040;-77
2024/01/02 08:17:06;;;;;;;18.65;9.20;;;8.50;99.90;;;;;;5065385;28;20376;-75
2024/01/02 08:19:31;;;;;;;21.02;10.23;;;8.50;99.90;;;;;;5066350;28;20047;-75
2024/01/02 08:21:57;;;;;;;21.48;10.55;;;8.60;99.90;;;;;;5065675;28;20609;-75
2024/01/02 08:24:23;;;;;;;25.00;11.23;;;8.70;99.90;;;;;;5078001;28;20044;-76
2024/01/02 08:26:48;;;;;;;19.60;10.25;;;8.70;99.90;;;;;;5082483;28;20122;-76
2024/01/02 08:29:14;;;;;;;25.00;11.02;;;8.70;99.90;;;;;;5082233;28;20109;-75
2024/01/02 08:31:40;;;;;;;20.30;9.85;;;8.90;99.90;;;;;;5085023;28;20062;-75
2024/01/02 08:34:06;;;;;;;24.40;10.90;;;9.00;99.90;;;;;;5080846;28;20040;-76
2024/01/02 08:36:31;;;;;;;25.38;10.45;;;9.10;99.90;;;;;;5088215;28;20571;-76
2024/01/02 08:38:57;;;;;;;29.13;10.27;;;9.10;99.90;;;;;;5063245;28;20044;-76
2024/01/02 08:41:23;;;;;;;19.25;8.95;;;9.10;99.90;;;;;;5065549;28;20513;-75
2024/01/02 08:43:48;;;;;;;23.80;8.65;;;9.20;99.90;;;;;;5081409;28;20344;-75
2024/01/02 08:46:14;;;;;;;22.42;7.13;;;9.20;99.90;;;;;;5066009;28;20096;-75
2024/01/02 08:48:40;;;;;;;19.73;7.18;;;9.30;99.90;;;;;;5087578;28;20462;-78
2024/01/02 08:51:06;;;;;;;21.98;6.85;;;9.30;99.90;;;;;;5073497;28;20039;-75
2024/01/02 08:53:32;;;;;;;27.83;7.30;;;9.40;99.90;;;;;;5060693;28;20051;-75
2024/01/02 08:55:58;;;;;;;21.25;5.55;;;9.50;99.90;;;;;;5062624;28;20051;-75
2024/01/02 08:58:24;;;;;;;18.77;4.53;;;9.50;99.90;;;;;;5074183;28;20032;-75
2024/01/02 09:00:50;;;;;;;24.48;4.75;;;9.50;99.90;;;;;;5082799;28;20058;-76
2024/01/02 09:03:16;;;;;;;23.00;4.65;;;9.50;99.90;;;;;;5085845;28;20414;-76
2024/01/02 09:05:42;;;;;;;26.55;4.97;;;9.60;99.90;;;;;;5089124;27;20047;-76
2024/01/02 09:08:11;;;;;;;31.35;5.35;;;9.60;99.90;;;;;;5072736;28;20394;-76
2024/01/02 09:10:37;;;;;;;20.83;4.23;;;9.70;99.90;;;;;;5069183;28;20445;-75
2024/01/02 09:13:03;;;;;;;28.70;5.60;;;9.70;99.90;;;;;;5084901;28;20036;-76
2024/01/02 09:15:30;;;;;;;27.42;4.85;;;9.70;99.90;;;;;;5080873;28;20055;-76
2024/01/02 09:17:59;;;;;;;25.85;5.40;;;9.70;99.90;;;;;;5083902;28;20054;-76
2024/01/02 09:20:24;;;;;;;29.15;6.10;;;9.80;99.90;;;;;;5083060;28;20460;-76
2024/01/02 09:22:54;;;;;;;26.42;5.25;;;9.80;99.90;;;;;;5082536;28;21494;-75
2024/01/02 09:25:25;;;;;;;23.25;6.00;;;9.80;99.90;;;;;;5085135;28;20048;-76
2024/01/02 09:27:54;;;;;;;30.63;5.63;;;9.90;99.90;;;;;;5063998;28;20497;-76
2024/01/02 09:30:20;;;;;;;26.90;4.95;;;9.90;99.90;;;;;;5082056;28;20056;-76
2024/01/02 09:32:46;;;;;;;26.10;5.78;;;9.90;99.90;;;;;;5081092;28;20059;-76
2024/01/02 09:35:11;;;;;;;22.00;4.78;;;9.90;99.90;;;;;;5067541;28;20047;-76
2024/01/02 09:37:40;;;;;;;20.13;4.40;;;10.00;99.90;;;;;;5083753;27;20051;-76
2024/01/02 09:40:20;;;;;;;24.38;5.22;;;10.00;99.90;;;;;;5064025;28;20123;-76
2024/01/02 09:43:18;;;;;;;26.30;4.38;;;10.00;99.90;;;;;;5086514;28;20054;-75
2024/01/02 09:45:58;;;;;;;29.85;5.72;;;10.00;99.90;;;;;;5080964;27;20559;-76
2024/01/02 09:48:40;;;;;;;30.50;5.13;;;10.10;99.90;;;;;;5067568;28;20169;-76
2024/01/02 09:51:08;;;;;;;23.85;3.92;;;10.10;99.90;;;;;;5084920;28;20055;-77
2024/01/02 09:54:04;;;;;;;23.85;4.55;;;10.10;99.90;;;;;;5082560;28;20043;-77
2024/01/02 09:56:40;;;;;;;20.20;4.35;;;10.20;99.90;;;;;;4995465;28;20053;-77
2024/01/02 09:59:35;;;;;;;20.65;5.25;;;10.20;99.90;;;;;;5068551;28;20071;-77
2024/01/02 10:02:35;;;;;;;22.63;4.57;;;10.20;99.90;;;;;;5082184;28;20047;-76
2024/01/02 10:05:21;;;;;;;23.10;4.30;;;10.20;99.90;;;;;;5082629;28;20060;-77
2024/01/02 10:08:03;;;;;;;24.02;4.40;;;10.30;99.90;;;;;;5092823;28;20052;-76
2024/01/02 10:10:36;;;;;;;22.92;4.85;;;10.30;99.90;;;;;;5071347;28;20553;-76
2024/01/02 10:13:36;;;;;;;24.52;4.53;;;10.30;99.90;;;;;;5073749;28;20289;-76
2024/01/02 10:16:20;;;;;;;24.33;4.47;;;10.30;99.90;;;;;;5079065;28;20104;-77
2024/01/02 10:19:12;;;;;;;22.27;4.20;;;10.30;99.90;;;;;;5077395;28;20056;-77
2024/01/02 10:22:08;;;;;;;25.88;4.35;;;10.40;99.90;;;;;;5072529;28;20043;-76
2024/01/02 10:24:34;;;;;;;24.40;4.90;;;10.40;99.90;;;;;;5055765;28;20047;-77
2024/01/02 10:27:12;;;;;;;22.27;4.53;;;10.40;99.90;;;;;;5060745;28;20130;-77
2024/01/02 10:30:06;;;;;;;21.02;4.13;;;10.40;99.90;;;;;;5061829;28;20050;-76
2024/01/02 10:32:56;;;;;;;20.52;3.95;;;10.50;99.90;;;;;;5070324;28;20409;-76
2024/01/02 10:35:37;;;;;;;19.40;4.32;;;10.50;99.90;;;;;;5070739;28;20051;-76
2024/01/02 10:38:03;;;;;;;;;;;10.50;99.90;;;;;;5070232;28;20067;-76
2024/01/02 10:40:28;;;;;;;22.90;4.40;;;10.50;99.90;;;;;;5061717;28;19935;-76
2024/01/02 10:43:22;;;;;;;19.95;4.00;;;10.50;99.90;;;;;;5071701;28;20410;-76
2024/01/02 10:45:48;;;;;;;18.88;4.00;;;10.50;99.90;;;;;;5061255;28;20478;-76
2024/01/02 10:48:27;;;;;;;18.42;3.85;;;10.60;99.90;;;;;;5061913;28;20134;-76
2024/01/02 10:51:03;;;;;;;20.08;4.10;;;10.60;99.90;;;;;;5073215;28;20155;-76
2024/01/02 10:53:34;;;;;;;21.35;4.78;;;10.60;99.90;;;;;;5079929;28;20447;-76
2024/01/02 10:56:13;;;;;;;21.45;4.65;;;10.60;99.90;;;;;;5058139;28;20055;-76
2024/01/02 10:58:57;;;;;;;18.50;3.80;;;10.60;99.90;;;;;;5052876;28;20048;-76
2024/01/02 11:01:26;;;;;;;19.10;4.50;;;10.60;99.90;;;;;;5070278;28;20043;-76
2024/01/02 11:04:01;;;;;;;17.85;4.35;;;10.60;99.90;;;;;;5069604;28;20052;-76
2024/01/02 11:06:38;;;;;;;21.65;4.53;;;10.60;99.90;;;;;;5073127;28;20061;-76
2024/01/02 11:09:11;;;;;;;23.13;5.10;;;10.60;99.90;;;;;;5076427;28;20052;-76
2024/01/02 11:11:39;;;;;;;19.60;5.25;;;10.70;99.90;;;;;;5078571;28;20541;-76
2024/01/02 11:14:06;;;;;;;16.20;4.05;;;10.70;99.90;;;;;;5058931;28;20375;-76
2024/01/02 11:16:34;;;;;;;17.83;4.20;;;10.70;99.90;;;;;;5058950;28;20058;-77
2024/01/02 11:19:04;;;;;;;17.98;4.68;;;10.80;99.90;;;;;;5059074;28;20504;-76
2024/01/02 11:21:40;;;;;;;23.20;4.57;;;10.80;99.90;;;;;;5072507;28;20044;-76
2024/01/02 11:24:08;;;;;;;21.70;4.68;;;10.80;99.90;;;;;;5066010;28;20043;-76
2024/01/02 11:26:40;;;;;;;18.02;4.05;;;10.80;99.90;;;;;;5074052;28;20084;-76
2024/01/02 11:29:10;;;;;;;21.92;4.18;;;10.80;99.90;;;;;;5077996;28;20051;-77
2024/01/02 11:31:37;;;;;;;21.08;5.10;;;10.80;99.90;;;;;;5063196;28;20398;-78
2024/01/02 11:34:36;;;;;;;25.25;5.35;;;10.80;99.90;;;;;;5079455;28;20056;-78
2024/01/02 11:37:17;;;;;;;19.48;4.63;;;10.90;99.90;;;;;;5068000;28;20555;-78
2024/01/02 11:39:57;;;;;;;22.83;4.93;;;10.80;99.90;;;;;;5087067;28;20043;-79
2024/01/02 11:42:38;;;;;;;22.88;4.88;;;10.90;99.90;;;;;;5081858;28;20056;-78
2024/01/02 11:45:17;;;;;;;22.60;4.50;;;10.90;99.90;;;;;;5086441;28;20039;-78
2024/01/02 11:47:49;;;;;;;29.80;6.38;;;10.80;99.90;;;;;;5065109;28;20582;-79
2024/01/02 11:50:15;;;;;;;23.83;5.60;;;10.80;99.90;;;;;;5077348;28;20055;-79
2024/01/02 11:53:01;;;;;;;28.08;6.22;;;10.80;99.90;;;;;;5074462;28;20058;-79
2024/01/02 11:55:51;;;;;;;26.92;6.53;;;10.80;99.90;;;;;;5084610;28;20047;-79
2024/01/02 11:58:31;;;;;;;30.30;5.97;;;10.80;99.90;;;;;;5086145;28;20085;-79
2024/01/02 12:00:57;;;;;;;25.77;5.60;;;10.80;99.90;;;;;;5074485;28;20129;-79
2024/01/02 12:03:38;;;;;;;29.08;5.88;;;10.80;99.90;;;;;;5087178;28;20506;-79
2024/01/02 12:06:16;;;;;;;29.73;6.85;;;10.80;99.90;;;;;;5065368;28;20381;-79
2024/01/02 12:08:49;;;;;;;30.17;7.43;;;10.80;99.90;;;;;;5081703;28;20035;-77
2024/01/02 12:11:19;;;;;;;30.63;7.20;;;10.80;99.90;;;;;;5068427;28;20494;-83
2024/01/02 12:14:11;;;;;;;;;;;10.90;99.90;;;;;;5068818;28;20126;-76
2024/01/02 12:16:42;;;;;;;34.78;7.95;;;10.90;99.90;;;;;;5075935;28;19919;-76
2024/01/02 12:19:10;;;;;;;31.70;7.72;;;11.00;99.90;;;;;;5067168;28;20078;-76
2024/01/02 12:21:39;;;;;;;31.50;8.40;;;10.90;99.90;;;;;;5077997;28;20040;-76
2024/01/02 12:24:06;;;;;;;37.15;8.18;;;10.90;99.90;;;;;;5080896;28;20051;-76
2024/01/02 12:26:35;;;;;;;28.63;7.20;;;10.90;99.90;;;;;;5082209;28;20052;-76
2024/01/02 12:29:01;;;;;;;32.58;8.80;;;10.90;99.90;;;;;;5089099;28;20497;-76
2024/01/02 12:32:00;;;;;;;32.40;8.32;;;10.90;99.90;;;;;;5063463;28;20043;-76
2024/01/02 12:34:32;;;;;;;30.83;7.50;;;10.90;99.90;;;;;;5056874;28;20048;-75
2024/01/02 12:37:16;;;;;;;30.20;7.95;;;10.90;99.90;;;;;;5094598;28;20486;-75
2024/01/02 12:39:44;;;;;;;38.58;8.85;;;10.90;99.90;;;;;;5086296;27;20047;-75
2024/01/02 12:42:20;;;;;;;29.83;7.85;;;10.90;99.90;;;;;;5085501;28;20498;-75
2024/01/02 12:44:50;;;;;;;31.13;8.05;;;10.90;99.90;;;;;;5062724;27;20345;-75
2024/01/02 12:47:21;;;;;;;29.13;7.60;;;10.90;99.90;;;;;;5077765;27;20173;-75
2024/01/02 12:49:59;;;;;;;33.33;8.38;;;10.90;99.90;;;;;;5103320;27;20042;-75
2024/01/02 12:52:37;;;;;;;25.88;6.90;;;10.90;99.90;;;;;;5083596;28;20067;-75
2024/01/02 12:55:07;;;;;;;29.92;8.43;;;10.90;99.90;;;;;;5093961;27;20074;-75